sensor_id;sensor_type;location;lat;lon;timestamp;pressure;altitude;pressure_sealevel;temperature;humidity
31162;BME280;17796;49.296;-117.656;2023-02-21T00:13:24;95200;;;3.4092;73.51989
31162;BME280;17796;49.296;-117.656;2023-02-21T00:28:28;95100;;;2.77881;76.00875
31162;BME280;17796;49.296;-117.656;2023-02-21T00:43:34;95100;;;2.49872;75.69236
31162;BME280;17796;49.296;-117.656;2023-02-21T00:58:38;95000;;;2.58097;74.17113
31162;BME280;17796;49.296;-117.656;2023-02-21T01:13:41;94900;;;3.58545;73.31957
31162;BME280;17796;49.296;-117.656;2023-02-21T01:28:46;94900;;;3.8935;74.03475
31162;BME280;17796;49.296;-117.656;2023-02-21T01:43:58;94800;;;3.48161;74.39676
31162;BME280;17796;49.296;-117.656;2023-02-21T01:59:03;94700;;;3.64071;72.65681
31162;BME280;17796;49.296;-117.656;2023-02-21T02:14:14;94700;;;3.62769;72.94775
31162;BME280;17796;49.296;-117.656;2023-02-21T02:29:37;94700;;;3.56195;72.79378
31162;BME280;17796;49.296;-117.656;2023-02-21T02:44:53;94600;;;2.21544;78.68661
31162;BME280;17796;49.296;-117.656;2023-02-21T03:00:03;94700;;;2.0376;80.49559
31162;BME280;17796;49.296;-117.656;2023-02-21T03:15:10;94700;;;2.91664;76.48864
31162;BME280;17796;49.296;-117.656;2023-02-21T03:30:19;94700;;;3.79823;73.07791
31162;BME280;17796;49.296;-117.656;2023-02-21T03:45:24;94700;;;2.72197;80.25673
31162;BME280;17796;49.296;-117.656;2023-02-21T04:00:27;94700;;;3.06304;77.34911
31162;BME280;17796;49.296;-117.656;2023-02-21T04:15:31;94600;;;3.38093;74.28347
31162;BME280;17796;49.296;-117.656;2023-02-21T04:30:35;94500;;;1.59491;82.17579
31162;BME280;17796;49.296;-117.656;2023-02-21T04:45:38;94500;;;1.12682;80.65559
31162;BME280;17796;49.296;-117.656;2023-02-21T05:00:42;94400;;;1.29418;85.68153
31162;BME280;17796;49.296;-117.656;2023-02-21T05:15:45;94400;;;2.00775;81.31478
31162;BME280;17796;49.296;-117.656;2023-02-21T05:30:49;94300;;;1.59618;80.65385
31162;BME280;17796;49.296;-117.656;2023-02-21T05:45:53;94300;;;1.95027;78.49109
31162;BME280;17796;49.296;-117.656;2023-02-21T06:00:56;94300;;;1.9201;77.93426
31162;BME280;17796;49.296;-117.656;2023-02-21T06:16:00;94300;;;1.51012;80.28924
31162;BME280;17796;49.296;-117.656;2023-02-21T06:31:04;94200;;;2.06047;76.95977
31162;BME280;17796;49.296;-117.656;2023-02-21T06:46:08;94200;;;1.76068;80.53899
31162;BME280;17796;49.296;-117.656;2023-02-21T07:01:16;94200;;;1.82547;78.81356
31162;BME280;17796;49.296;-117.656;2023-02-21T07:16:21;94200;;;0.12744;90.88573
31162;BME280;17796;49.296;-117.656;2023-02-21T07:31:25;94100;;;1.76704;81.14771
31162;BME280;17796;49.296;-117.656;2023-02-21T07:46:28;94100;;;1.67177;81.11607
31162;BME280;17796;49.296;-117.656;2023-02-21T08:01:32;94100;;;1.49615;81.12551
31162;BME280;17796;49.296;-117.656;2023-02-21T08:16:35;94100;;;1.45868;80.73301
31162;BME280;17796;49.296;-117.656;2023-02-21T08:31:40;94100;;;0.52154;86.03051
31162;BME280;17796;49.296;-117.656;2023-02-21T08:46:44;94100;;;0.57235;85.47992
31162;BME280;17796;49.296;-117.656;2023-02-21T09:01:48;94100;;;1.59809;81.37137
31162;BME280;17796;49.296;-117.656;2023-02-21T09:16:51;94100;;;0.28908;91.7931
31162;BME280;17796;49.296;-117.656;2023-02-21T09:31:55;94100;;;0.96105;86.34271
31162;BME280;17796;49.296;-117.656;2023-02-21T09:47:00;94100;;;1.74766;82.22462
31162;BME280;17796;49.296;-117.656;2023-02-21T10:02:13;94100;;;1.55712;83.86267
31162;BME280;17796;49.296;-117.656;2023-02-21T10:17:30;94100;;;0.46692;90.08975
31162;BME280;17796;49.296;-117.656;2023-02-21T10:32:39;94100;;;1.28783;86.11245
31162;BME280;17796;49.296;-117.656;2023-02-21T10:47:44;94100;;;0.88515;85.12759
31162;BME280;17796;49.296;-117.656;2023-02-21T11:02:55;94000;;;1.70098;81.54623
31162;BME280;17796;49.296;-117.656;2023-02-21T11:18:10;94000;;;1.67018;82.38622
31162;BME280;17796;49.296;-117.656;2023-02-21T11:33:19;94000;;;0.91469;86.62667
31162;BME280;17796;49.296;-117.656;2023-02-21T11:48:24;94000;;;1.09443;87.58639
31162;BME280;17796;49.296;-117.656;2023-02-21T12:03:37;94000;;;1.34372;83.66999
31162;BME280;17796;49.296;-117.656;2023-02-21T12:18:58;94000;;;0.50249;90.01245
31162;BME280;17796;49.296;-117.656;2023-02-21T12:34:21;94000;;;1.89279;83.00109
31162;BME280;17796;49.296;-117.656;2023-02-21T12:49:34;94000;;;0.29734;92.3981
31162;BME280;17796;49.296;-117.656;2023-02-21T13:04:45;94000;;;1.4682;84.87018
31162;BME280;17796;49.296;-117.656;2023-02-21T13:19:54;94000;;;1.42565;84.29135
31162;BME280;17796;49.296;-117.656;2023-02-21T13:35:04;94000;;;1.37674;82.54138
31162;BME280;17796;49.296;-117.656;2023-02-21T13:50:40;94000;;;-0.51435;92.11398
31162;BME280;17796;49.296;-117.656;2023-02-21T14:06:54;94000;;;0.72192;85.02745
31162;BME280;17796;49.296;-117.656;2023-02-21T14:21:59;94000;;;0.53805;85.93968
31162;BME280;17796;49.296;-117.656;2023-02-21T14:37:11;94100;;;-0.09136;86.39608
31162;BME280;17796;49.296;-117.656;2023-02-21T14:52:23;94100;;;0.21922;86.09406
31162;BME280;17796;49.296;-117.656;2023-02-21T15:07:42;94100;;;0.4358;83.86076
31162;BME280;17796;49.296;-117.656;2023-02-21T15:22:55;94100;;;0.33831;86.43476
31162;BME280;17796;49.296;-117.656;2023-02-21T15:38:02;94100;;;1.19827;80.76679
31162;BME280;17796;49.296;-117.656;2023-02-21T15:53:11;94100;;;1.32625;81.35984
31162;BME280;17796;49.296;-117.656;2023-02-21T16:08:16;94100;;;1.2475;82.92146
31162;BME280;17796;49.296;-117.656;2023-02-21T16:23:22;94100;;;1.55204;83.71988
31162;BME280;17796;49.296;-117.656;2023-02-21T16:38:28;94100;;;0.85848;88.14236
31162;BME280;17796;49.296;-117.656;2023-02-21T16:53:31;94100;;;1.38564;86.86124
31162;BME280;17796;49.296;-117.656;2023-02-21T17:08:35;94100;;;2.70387;81.43533
31162;BME280;17796;49.296;-117.656;2023-02-21T17:23:39;94100;;;2.23069;80.95373
31162;BME280;17796;49.296;-117.656;2023-02-21T17:38:43;94100;;;2.77977;79.33417
31162;BME280;17796;49.296;-117.656;2023-02-21T17:53:48;94100;;;2.78802;80.41159
31162;BME280;17796;49.296;-117.656;2023-02-21T18:08:53;94100;;;3.5791;78.88891
31162;BME280;17796;49.296;-117.656;2023-02-21T18:23:57;94100;;;4.21425;74.58071
31162;BME280;17796;49.296;-117.656;2023-02-21T18:39:01;94100;;;4.14851;70.35032
31162;BME280;17796;49.296;-117.656;2023-02-21T18:54:05;94100;;;3.52416;72.43226
31162;BME280;17796;49.296;-117.656;2023-02-21T19:09:09;94100;;;3.76965;71.77336
31162;BME280;17796;49.296;-117.656;2023-02-21T19:24:12;94100;;;3.73281;73.54689
31162;BME280;17796;49.296;-117.656;2023-02-21T19:39:16;94100;;;2.9322;80.23368
31162;BME280;17796;49.296;-117.656;2023-02-21T19:54:21;94200;;;2.03633;78.09338
31162;BME280;17796;49.296;-117.656;2023-02-21T20:09:26;94300;;;-0.66646;86.54712
31162;BME280;17796;49.296;-117.656;2023-02-21T20:24:30;94300;;;-1.3943;92.00572
31162;BME280;17796;49.296;-117.656;2023-02-21T20:39:34;94400;;;0.60442;81.71152
31162;BME280;17796;49.296;-117.656;2023-02-21T20:54:37;94400;;;-0.05579;81.94804
31162;BME280;17796;49.296;-117.656;2023-02-21T21:09:41;94400;;;-2.16914;91.79716
31162;BME280;17796;49.296;-117.656;2023-02-21T21:24:45;94500;;;-0.52324;82.81384
31162;BME280;17796;49.296;-117.656;2023-02-21T21:39:51;94500;;;-1.44384;85.39805
31162;BME280;17796;49.296;-117.656;2023-02-21T21:54:55;94500;;;-1.52101;83.86345
31162;BME280;17796;49.296;-117.656;2023-02-21T22:09:59;94600;;;-1.92303;83.44456
31162;BME280;17796;49.296;-117.656;2023-02-21T22:25:03;94600;;;-1.3743;79.3074
31162;BME280;17796;49.296;-117.656;2023-02-21T22:40:07;94600;;;-2.47367;81.75771
31162;BME280;17796;49.296;-117.656;2023-02-21T22:55:11;94600;;;-1.56134;76.34542
31162;BME280;17796;49.296;-117.656;2023-02-21T23:10:16;94600;;;-2.655;77.58409
31162;BME280;17796;49.296;-117.656;2023-02-21T23:25:22;94700;;;-2.33649;76.86531
31162;BME280;17796;49.296;-117.656;2023-02-21T23:40:27;94700;;;-2.72263;75.07525
31162;BME280;17796;49.296;-117.656;2023-02-21T23:55:31;94700;;;-2.49813;75.43245
